Time;durP1;ratioP1;P1;durP2;ratioP2;P2;SDS_P1;SDS_P2;PMS_P1;PMS_P2;Temp;Humidity;BMP_temperature;BMP_pressure;BME280_temperature;BME280_humidity;BME280_pressure;Samples;Min_cycle;Max_cycle;Signal;HPM_P1;HPM_P2
2023/06/11 00:01:29;;;;;;;8.23;7.38;;;27.00;78.80;;;;;;5035042;28;20228;-37
2023/06/11 00:04:00;;;;;;;8.00;7.10;;;27.00;78.90;;;;;;5041698;28;20296;-37
2023/06/11 00:06:27;;;;;;;7.88;7.07;;;26.90;79.00;;;;;;5041247;28;20204;-37
2023/06/11 00:08:55;;;;;;;8.25;7.00;;;26.90;79.10;;;;;;5041073;28;20212;-37
2023/06/11 00:11:22;;;;;;;7.63;6.93;;;26.90;79.30;;;;;;5030379;28;20590;-37
2023/06/11 00:13:57;;;;;;;10.20;7.18;;;26.80;79.20;;;;;;5021692;28;20537;-38
2023/06/11 00:16:32;;;;;;;9.52;6.88;;;26.80;79.40;;;;;;5033138;28;20212;-36
2023/06/11 00:19:00;;;;;;;7.43;6.57;;;26.70;79.30;;;;;;5041106;28;20204;-36
2023/06/11 00:21:28;;;;;;;8.65;7.80;;;26.70;79.50;;;;;;5032543;28;20520;-36
2023/06/11 00:23:58;;;;;;;7.70;6.85;;;26.70;79.60;;;;;;5023322;28;20197;-36
2023/06/11 00:26:28;;;;;;;8.43;7.63;;;26.70;79.50;;;;;;5023060;28;20197;-36
2023/06/11 00:28:56;;;;;;;8.93;7.60;;;26.70;79.70;;;;;;5022635;28;20204;-37
2023/06/11 00:31:25;;;;;;;8.13;7.35;;;26.60;79.70;;;;;;5030001;28;20268;-36
2023/06/11 00:33:55;;;;;;;8.23;7.43;;;26.60;80.00;;;;;;5041489;28;20211;-36
2023/06/11 00:36:26;;;;;;;8.35;7.18;;;26.60;79.90;;;;;;5042126;28;20694;-36
2023/06/11 00:39:01;;;;;;;8.07;6.93;;;26.50;80.00;;;;;;5040987;28;20974;-36
2023/06/11 00:41:30;;;;;;;8.73;7.07;;;26.50;80.00;;;;;;5032106;28;20235;-36
2023/06/11 00:44:00;;;;;;;7.63;6.93;;;26.40;80.00;;;;;;5022668;28;20296;-36
2023/06/11 00:46:27;;;;;;;10.65;7.50;;;26.40;80.00;;;;;;5029377;28;20726;-36
2023/06/11 00:49:00;;;;;;;8.55;7.63;;;26.40;80.20;;;;;;5041102;28;20842;-36
2023/06/11 00:51:30;;;;;;;9.75;7.80;;;26.30;80.30;;;;;;5036564;28;20334;-36
2023/06/11 00:54:02;;;;;;;8.38;7.43;;;26.30;80.30;;;;;;5021095;28;20212;-36
2023/06/11 00:56:29;;;;;;;9.55;7.63;;;26.30;80.50;;;;;;5023110;28;20282;-36
2023/06/11 00:58:57;;;;;;;10.70;7.82;;;26.30;80.70;;;;;;5010853;28;20291;-37
2023/06/11 01:01:29;;;;;;;8.98;7.65;;;26.20;80.30;;;;;;5013046;28;20263;-36
2023/06/11 01:04:00;;;;;;;9.75;7.18;;;26.20;80.50;;;;;;5022686;28;20208;-36
2023/06/11 01:06:34;;;;;;;8.68;7.78;;;26.20;80.60;;;;;;5016929;28;20209;-36
2023/06/11 01:09:03;;;;;;;7.40;6.80;;;26.20;80.50;;;;;;5027418;28;20605;-36
2023/06/11 01:11:34;;;;;;;7.88;7.18;;;26.20;80.40;;;;;;5035623;28;20937;-36
2023/06/11 01:14:13;;;;;;;8.25;7.10;;;26.10;80.70;;;;;;5011028;28;20208;-36
2023/06/11 01:17:02;;;;;;;7.95;7.10;;;26.10;80.60;;;;;;5013131;28;20812;-36
2023/06/11 01:19:37;;;;;;;8.57;7.68;;;26.10;80.90;;;;;;5022447;28;20704;-36
2023/06/11 01:22:21;;;;;;;12.77;8.63;;;26.00;80.70;;;;;;5023287;28;20556;-36
2023/06/11 01:25:11;;;;;;;9.73;7.63;;;26.00;81.20;;;;;;5024708;28;20274;-36
2023/06/11 01:28:06;;;;;;;8.68;7.78;;;26.00;81.20;;;;;;5026362;28;20227;-36
2023/06/11 01:30:36;;;;;;;9.15;7.43;;;25.90;81.80;;;;;;5025969;28;20446;-36
2023/06/11 01:33:08;;;;;;;8.43;7.40;;;25.80;81.10;;;;;;5036910;28;20289;-36
2023/06/11 01:35:39;;;;;;;9.15;8.20;;;25.80;81.20;;;;;;5045563;28;20311;-36
2023/06/11 01:38:11;;;;;;;9.73;8.13;;;25.80;81.20;;;;;;5044177;28;20303;-37
2023/06/11 01:40:40;;;;;;;9.65;8.45;;;25.70;81.40;;;;;;5044126;28;20296;-36
2023/06/11 01:43:07;;;;;;;8.43;7.63;;;25.70;81.40;;;;;;5030781;28;20211;-37
2023/06/11 01:45:36;;;;;;;9.23;7.85;;;25.60;81.40;;;;;;5024622;28;20193;-37
2023/06/11 01:48:05;;;;;;;9.48;7.70;;;25.60;81.60;;;;;;5037563;28;20253;-37
2023/06/11 01:50:35;;;;;;;8.82;7.68;;;25.50;81.60;;;;;;5046099;28;20211;-37
2023/06/11 01:53:07;;;;;;;9.02;8.15;;;25.50;81.80;;;;;;5034273;28;20201;-36
2023/06/11 01:55:36;;;;;;;10.93;8.40;;;25.40;81.80;;;;;;5026335;28;20693;-36
2023/06/11 01:58:08;;;;;;;9.40;8.50;;;25.30;81.80;;;;;;5025745;28;20585;-37
2023/06/11 02:00:38;;;;;;;8.50;7.70;;;25.30;81.80;;;;;;5024363;28;20197;-37
2023/06/11 02:03:05;;;;;;;9.00;8.15;;;25.30;81.90;;;;;;5035384;28;20239;-36
2023/06/11 02:05:32;;;;;;;8.50;7.63;;;25.20;81.90;;;;;;5046035;28;20220;-36
2023/06/11 02:08:00;;;;;;;10.30;8.60;;;25.10;81.90;;;;;;5042866;28;20712;-37
2023/06/11 02:10:27;;;;;;;8.15;7.35;;;25.10;81.90;;;;;;5045888;28;20281;-36
2023/06/11 02:12:54;;;;;;;9.52;8.13;;;25.00;82.10;;;;;;5034378;28;20205;-35
2023/06/11 02:15:24;;;;;;;8.68;7.75;;;25.00;82.20;;;;;;5005731;28;20217;-36
2023/06/11 02:17:51;;;;;;;8.45;7.65;;;25.00;82.30;;;;;;5017683;28;20640;-36
2023/06/11 02:20:23;;;;;;;8.85;7.95;;;24.90;82.30;;;;;;5043652;28;20291;-35
2023/06/11 02:22:58;;;;;;;8.90;8.00;;;24.90;82.40;;;;;;5040187;28;20336;-35
2023/06/11 02:25:30;;;;;;;8.55;7.72;;;24.80;82.50;;;;;;5025795;28;20208;-36
2023/06/11 02:27:59;;;;;;;8.73;7.82;;;24.70;82.40;;;;;;5023671;28;20208;-36
2023/06/11 02:30:27;;;;;;;7.95;7.20;;;24.70;82.50;;;;;;5025336;28;20243;-36
2023/06/11 02:32:54;;;;;;;12.27;8.70;;;24.70;82.50;;;;;;5027414;28;20212;-36
2023/06/11 02:35:24;;;;;;;8.90;8.00;;;24.70;82.60;;;;;;5043436;28;20215;-36
2023/06/11 02:37:51;;;;;;;9.30;8.00;;;24.60;82.80;;;;;;5025921;28;20307;-36
2023/06/11 02:40:18;;;;;;;9.13;7.90;;;24.50;82.70;;;;;;5045538;28;20515;-36
2023/06/11 02:42:50;;;;;;;7.95;7.15;;;24.50;82.50;;;;;;5022718;28;20705;-36
2023/06/11 02:45:18;;;;;;;9.55;7.60;;;24.50;82.70;;;;;;5025393;28;20311;-36
2023/06/11 02:47:45;;;;;;;11.02;7.25;;;24.50;82.70;;;;;;5040705;28;20294;-36
2023/06/11 02:50:12;;;;;;;9.57;7.72;;;24.50;82.90;;;;;;5027692;28;20212;-36
2023/06/11 02:52:42;;;;;;;8.48;7.50;;;24.50;82.70;;;;;;5044365;28;20701;-36
2023/06/11 02:55:13;;;;;;;7.70;7.00;;;24.50;82.70;;;;;;5025540;28;20324;-36
2023/06/11 02:57:43;;;;;;;8.25;7.20;;;24.50;82.60;;;;;;5023737;28;20282;-36
2023/06/11 03:00:13;;;;;;;7.97;7.18;;;24.50;82.70;;;;;;5024721;28;21028;-36
2023/06/11 03:02:42;;;;;;;9.27;7.30;;;24.40;82.80;;;;;;5024097;28;20604;-36
2023/06/11 03:05:10;;;;;;;8.00;7.20;;;24.40;82.90;;;;;;5043943;28;20275;-36
2023/06/11 03:07:40;;;;;;;7.95;7.13;;;24.40;82.90;;;;;;5043423;28;20239;-36
2023/06/11 03:10:07;;;;;;;8.20;7.40;;;24.40;82.80;;;;;;5044448;28;20246;-36
2023/06/11 03:12:37;;;;;;;8.95;7.82;;;24.40;82.90;;;;;;5044197;28;20305;-35
2023/06/11 03:15:05;;;;;;;8.05;7.28;;;24.30;82.90;;;;;;5007901;28;20407;-36
2023/06/11 03:17:32;;;;;;;8.65;7.85;;;24.30;82.90;;;;;;5022362;28;20201;-36
2023/06/11 03:20:02;;;;;;;9.85;8.00;;;24.30;83.00;;;;;;5038593;28;20866;-37
2023/06/11 03:22:32;;;;;;;8.30;7.10;;;24.30;83.20;;;;;;5041579;28;20232;-36
2023/06/11 03:24:59;;;;;;;8.48;7.68;;;24.30;83.20;;;;;;5023033;28;20202;-36
2023/06/11 03:27:26;;;;;;;8.40;7.45;;;24.30;83.20;;;;;;5030944;28;20209;-36
2023/06/11 03:29:53;;;;;;;8.75;7.75;;;24.30;83.30;;;;;;5041897;28;20283;-37
2023/06/11 03:32:21;;;;;;;8.77;7.88;;;24.20;83.20;;;;;;5007091;28;20288;-37
2023/06/11 03:34:53;;;;;;;9.73;7.90;;;24.20;83.40;;;;;;5005179;28;20206;-36
2023/06/11 03:37:20;;;;;;;9.18;8.27;;;24.20;83.60;;;;;;5013395;28;20233;-36
2023/06/11 03:39:48;;;;;;;9.77;8.10;;;24.10;83.60;;;;;;5042245;28;20211;-36
2023/06/11 03:42:20;;;;;;;9.32;8.30;;;24.10;83.60;;;;;;5043781;28;20224;-36
2023/06/11 03:44:49;;;;;;;9.18;7.80;;;24.00;83.70;;;;;;5026096;28;20322;-36
2023/06/11 03:47:18;;;;;;;8.48;7.60;;;24.00;83.70;;;;;;5042001;28;20209;-36
2023/06/11 03:49:50;;;;;;;8.65;7.72;;;24.00;83.90;;;;;;5022186;28;20572;-36
2023/06/11 03:52:20;;;;;;;8.60;7.70;;;24.00;84.70;;;;;;5005776;28;20572;-36
2023/06/11 03:54:49;;;;;;;10.75;7.78;;;24.00;84.00;;;;;;5038010;28;20237;-36
2023/06/11 03:57:18;;;;;;;9.48;7.63;;;23.90;84.00;;;;;;5021690;28;20752;-36
2023/06/11 03:59:45;;;;;;;9.80;7.65;;;23.90;84.80;;;;;;5021551;28;20310;-36
2023/06/11 04:02:12;;;;;;;9.23;8.15;;;23.90;84.10;;;;;;5026360;28;20251;-37
2023/06/11 04:04:40;;;;;;;9.43;7.43;;;23.80;84.20;;;;;;5043172;28;20231;-36
2023/06/11 04:07:07;;;;;;;8.50;7.35;;;23.80;84.20;;;;;;5041421;28;20200;-36
2023/06/11 04:09:37;;;;;;;9.00;8.07;;;23.80;84.40;;;;;;5032037;28;20604;-36
2023/06/11 04:12:07;;;;;;;8.02;7.28;;;23.80;84.40;;;;;;5023214;28;20216;-37
2023/06/11 04:14:37;;;;;;;8.98;8.15;;;23.70;84.30;;;;;;5037820;28;20228;-37
2023/06/11 04:17:06;;;;;;;8.80;7.90;;;23.70;84.40;;;;;;5023297;28;20316;-38
2023/06/11 04:19:34;;;;;;;8.88;8.00;;;23.70;84.40;;;;;;5041667;28;20200;-37
2023/06/11 04:22:01;;;;;;;8.68;7.85;;;23.70;84.60;;;;;;5042714;28;20636;-37
2023/06/11 04:24:28;;;;;;;10.35;7.57;;;23.70;84.70;;;;;;5024058;28;20199;-37
2023/06/11 04:26:56;;;;;;;8.77;7.97;;;23.70;84.80;;;;;;5041209;28;20200;-37
2023/06/11 04:29:29;;;;;;;10.60;7.88;;;23.70;85.50;;;;;;5011516;28;20324;-37
2023/06/11 04:32:01;;;;;;;8.90;7.97;;;23.70;85.00;;;;;;5001514;28;20251;-37
2023/06/11 04:34:30;;;;;;;11.50;8.45;;;23.70;85.00;;;;;;5018482;28;20201;-37
2023/06/11 04:36:57;;;;;;;9.35;8.40;;;23.70;85.10;;;;;;5001965;28;20577;-37
2023/06/11 04:39:27;;;;;;;9.73;8.13;;;23.70;85.20;;;;;;5010108;28;20268;-37
2023/06/11 04:42:02;;;;;;;9.13;8.18;;;23.70;85.20;;;;;;5010588;28;20221;-37
2023/06/11 04:44:29;;;;;;;9.80;8.63;;;23.70;85.30;;;;;;5008656;28;20205;-36
2023/06/11 04:46:56;;;;;;;8.52;7.72;;;23.70;85.40;;;;;;5002647;28;20209;-37
2023/06/11 04:49:24;;;;;;;9.57;8.43;;;23.70;85.50;;;;;;5052459;28;20306;-36
2023/06/11 04:51:58;;;;;;;8.48;7.68;;;23.70;85.60;;;;;;5037230;28;20375;-36
2023/06/11 04:54:28;;;;;;;9.43;7.40;;;23.70;85.70;;;;;;5027382;28;20229;-37
2023/06/11 04:56:57;;;;;;;8.50;7.70;;;23.70;85.80;;;;;;5022409;28;20612;-35
2023/06/11 04:59:27;;;;;;;10.73;8.40;;;23.80;85.80;;;;;;5017655;28;20354;-36
2023/06/11 05:01:55;;;;;;;8.88;7.80;;;23.80;85.80;;;;;;5010705;28;20233;-36
2023/06/11 05:04:25;;;;;;;10.35;7.97;;;23.80;85.80;;;;;;5028982;28;20831;-36
2023/06/11 05:06:57;;;;;;;8.95;8.05;;;23.80;86.00;;;;;;5017925;28;20197;-36
2023/06/11 05:09:27;;;;;;;9.43;7.90;;;23.90;86.00;;;;;;5010747;28;20197;-36
2023/06/11 05:11:54;;;;;;;8.98;7.82;;;23.90;85.90;;;;;;5020159;28;20623;-36
2023/06/11 05:14:23;;;;;;;9.95;7.85;;;23.90;85.90;;;;;;5021674;28;20502;-35
2023/06/11 05:16:56;;;;;;;8.73;7.78;;;24.00;86.00;;;;;;5006298;28;20213;-36
2023/06/11 05:19:23;;;;;;;8.77;7.65;;;24.00;86.70;;;;;;5002173;28;20236;-35
2023/06/11 05:21:50;;;;;;;9.13;7.32;;;24.00;85.90;;;;;;5028762;28;20231;-35
2023/06/11 05:24:21;;;;;;;8.27;7.43;;;24.10;86.00;;;;;;5021713;28;20205;-35
2023/06/11 05:26:56;;;;;;;8.05;7.13;;;24.20;86.10;;;;;;5037008;28;20282;-36
2023/06/11 05:29:26;;;;;;;7.35;6.65;;;24.20;86.30;;;;;;5036655;28;20208;-36
2023/06/11 05:31:56;;;;;;;7.47;6.78;;;24.30;86.10;;;;;;5020237;28;20331;-36
2023/06/11 05:34:25;;;;;;;8.43;7.10;;;24.30;86.20;;;;;;5015231;28;20248;-36
2023/06/11 05:36:53;;;;;;;7.53;6.72;;;24.40;86.30;;;;;;5000823;28;20304;-36
2023/06/11 05:39:22;;;;;;;7.60;6.90;;;24.40;86.30;;;;;;4984624;28;21176;-37
2023/06/11 05:41:52;;;;;;;8.10;7.30;;;24.50;86.30;;;;;;5013275;28;20220;-34
2023/06/11 05:44:19;;;;;;;9.23;6.97;;;24.50;86.30;;;;;;5041897;28;20224;-36
2023/06/11 05:46:46;;;;;;;7.78;6.78;;;24.60;86.30;;;;;;5041450;28;20228;-35
2023/06/11 05:49:16;;;;;;;9.30;7.05;;;24.60;86.30;;;;;;5039689;28;20218;-35
2023/06/11 05:51:45;;;;;;;7.60;6.80;;;24.70;86.40;;;;;;5016405;28;20738;-35
2023/06/11 05:54:13;;;;;;;7.80;7.03;;;24.80;86.70;;;;;;5001514;28;20295;-36
2023/06/11 05:56:40;;;;;;;8.88;6.65;;;24.80;86.70;;;;;;5007733;28;20590;-38
2023/06/11 05:59:07;;;;;;;7.32;6.63;;;24.90;86.80;;;;;;5013125;28;20267;-38
2023/06/11 06:01:34;;;;;;;7.18;6.47;;;25.00;86.90;;;;;;5023010;28;20201;-38
2023/06/11 06:04:04;;;;;;;7.60;6.80;;;25.10;87.00;;;;;;5017115;28;20202;-38
2023/06/11 06:06:32;;;;;;;7.35;6.65;;;25.10;87.00;;;;;;5010205;28;20799;-38
2023/06/11 06:09:00;;;;;;;8.68;7.30;;;25.20;87.10;;;;;;5019960;28;20232;-38
2023/06/11 06:11:29;;;;;;;7.47;6.75;;;25.30;87.30;;;;;;5012170;28;20356;-39
2023/06/11 06:13:57;;;;;;;7.50;6.80;;;25.30;87.30;;;;;;5021470;28;20681;-39
2023/06/11 06:16:26;;;;;;;7.93;7.13;;;25.40;87.40;;;;;;5010027;28;21001;-34
2023/06/11 06:18:57;;;;;;;7.82;7.13;;;25.50;87.50;;;;;;5025043;28;20378;-32
2023/06/11 06:21:27;;;;;;;7.32;6.72;;;25.50;87.40;;;;;;5027721;28;20190;-32
2023/06/11 06:23:54;;;;;;;8.27;6.90;;;25.60;87.70;;;;;;5041593;28;20726;-34
2023/06/11 06:26:24;;;;;;;8.10;7.40;;;25.60;87.50;;;;;;5020411;28;20928;-40
2023/06/11 06:28:53;;;;;;;8.32;7.53;;;25.70;87.60;;;;;;5027132;28;20687;-35
2023/06/11 06:31:22;;;;;;;7.72;7.03;;;25.70;87.70;;;;;;5008105;28;20511;-34
2023/06/11 06:33:53;;;;;;;8.88;7.30;;;25.70;87.70;;;;;;5017805;28;20262;-35
2023/06/11 06:36:25;;;;;;;7.93;7.13;;;25.70;87.70;;;;;;5027304;28;20213;-35
2023/06/11 06:38:52;;;;;;;7.97;7.00;;;25.80;87.90;;;;;;5018170;28;20300;-35
2023/06/11 06:41:26;;;;;;;7.63;6.93;;;25.80;87.90;;;;;;5012423;28;20220;-35
2023/06/11 06:43:56;;;;;;;8.90;6.93;;;25.90;88.00;;;;;;5010634;28;20587;-35
2023/06/11 06:46:26;;;;;;;8.07;7.30;;;25.90;87.90;;;;;;5005005;28;20205;-35
2023/06/11 06:48:56;;;;;;;7.68;6.97;;;26.00;88.10;;;;;;4991495;28;20206;-35
2023/06/11 06:51:25;;;;;;;7.40;6.70;;;26.00;88.10;;;;;;5005760;28;20197;-35
2023/06/11 06:53:52;;;;;;;7.95;7.13;;;26.10;88.30;;;;;;5012528;28;20231;-34
2023/06/11 06:56:22;;;;;;;8.07;7.28;;;26.10;88.20;;;;;;5024869;28;20247;-35
2023/06/11 06:58:53;;;;;;;6.90;6.22;;;26.10;88.30;;;;;;5024766;28;20267;-35
2023/06/11 07:01:20;;;;;;;7.07;6.38;;;26.20;88.40;;;;;;5020493;28;20345;-34
2023/06/11 07:03:49;;;;;;;8.23;7.43;;;26.20;88.40;;;;;;5006746;28;20233;-35
2023/06/11 07:06:17;;;;;;;7.05;6.45;;;26.30;88.50;;;;;;5043749;28;20570;-35
2023/06/11 07:08:46;;;;;;;6.93;6.32;;;26.30;88.50;;;;;;5043707;28;20689;-34
2023/06/11 07:11:15;;;;;;;7.88;6.45;;;26.40;88.60;;;;;;5030973;28;20208;-34
2023/06/11 07:13:42;;;;;;;9.10;7.20;;;26.40;88.70;;;;;;5027531;28;20232;-35
2023/06/11 07:16:09;;;;;;;7.38;6.70;;;26.40;88.70;;;;;;5026318;28;20263;-34
2023/06/11 07:18:39;;;;;;;7.60;6.80;;;26.50;88.80;;;;;;5026419;28;20209;-34
2023/06/11 07:21:06;;;;;;;7.07;6.47;;;26.50;89.00;;;;;;5039745;28;20258;-35
2023/06/11 07:23:33;;;;;;;7.43;6.60;;;26.60;89.00;;;;;;5026979;28;20648;-35
2023/06/11 07:26:02;;;;;;;7.45;6.75;;;26.60;89.10;;;;;;5046075;28;20208;-34
2023/06/11 07:28:36;;;;;;;8.82;6.80;;;26.70;89.00;;;;;;5044693;28;20196;-34
2023/06/11 07:31:03;;;;;;;7.63;6.82;;;26.70;89.10;;;;;;5020498;28;20677;-35
2023/06/11 07:33:33;;;;;;;7.95;7.22;;;26.80;89.20;;;;;;5020651;28;20206;-35
2023/06/11 07:36:00;;;;;;;8.15;6.95;;;26.80;89.20;;;;;;5029672;28;20239;-34
2023/06/11 07:38:30;;;;;;;7.85;7.05;;;26.80;89.30;;;;;;5045534;28;20204;-35
2023/06/11 07:41:01;;;;;;;7.80;7.10;;;26.90;89.40;;;;;;5036500;28;20690;-35
2023/06/11 07:43:31;;;;;;;7.35;6.65;;;26.90;89.70;;;;;;5005029;28;20245;-35
2023/06/11 07:46:01;;;;;;;8.10;6.75;;;27.00;89.60;;;;;;4989389;28;20295;-35
2023/06/11 07:48:29;;;;;;;8.05;7.25;;;27.00;89.60;;;;;;5021737;28;20230;-35
2023/06/11 07:50:58;;;;;;;9.98;7.18;;;27.10;89.70;;;;;;5012973;28;20236;-35
2023/06/11 07:53:28;;;;;;;7.85;7.05;;;27.10;89.70;;;;;;5012501;28;20219;-35
2023/06/11 07:55:56;;;;;;;7.38;6.78;;;27.10;89.80;;;;;;5023950;28;20544;-39
2023/06/11 07:58:24;;;;;;;10.18;6.60;;;27.20;89.80;;;;;;5002648;28;20249;-39
2023/06/11 08:00:57;;;;;;;7.07;6.40;;;27.20;89.80;;;;;;5003045;28;20241;-43
2023/06/11 08:03:26;;;;;;;7.75;7.00;;;27.30;90.00;;;;;;5003429;28;20800;-39
2023/06/11 08:05:58;;;;;;;7.47;6.70;;;27.30;90.00;;;;;;5005487;28;20213;-35
2023/06/11 08:08:25;;;;;;;8.15;7.25;;;27.40;90.00;;;;;;5014232;28;20607;-35
2023/06/11 08:10:52;;;;;;;8.30;6.88;;;27.40;90.10;;;;;;4997820;28;20201;-35
2023/06/11 08:13:21;;;;;;;7.75;6.93;;;27.50;90.10;;;;;;5006348;28;20955;-35
2023/06/11 08:15:51;;;;;;;7.55;6.95;;;27.50;90.10;;;;;;5012483;28;20202;-35
2023/06/11 08:18:18;;;;;;;8.00;7.20;;;27.60;90.20;;;;;;5006847;28;20225;-35
2023/06/11 08:20:46;;;;;;;7.40;6.65;;;27.60;90.10;;;;;;5006537;28;20201;-35
2023/06/11 08:23:18;;;;;;;7.82;7.03;;;27.70;90.20;;;;;;5003730;28;20213;-35
2023/06/11 08:25:49;;;;;;;7.05;6.45;;;27.70;90.20;;;;;;5002857;28;20197;-35
2023/06/11 08:28:17;;;;;;;8.35;7.55;;;27.80;90.30;;;;;;5006637;28;20296;-35
2023/06/11 08:30:46;;;;;;;9.95;6.97;;;27.80;90.30;;;;;;5018573;28;20201;-36
2023/06/11 08:33:18;;;;;;;7.18;6.53;;;27.90;90.40;;;;;;5016627;28;20340;-35
2023/06/11 08:35:50;;;;;;;7.90;6.75;;;27.90;90.70;;;;;;5019605;28;20233;-35
2023/06/11 08:38:17;;;;;;;7.80;7.10;;;28.00;90.50;;;;;;5014815;28;20212;-35
2023/06/11 08:40:45;;;;;;;7.35;6.72;;;28.00;90.40;;;;;;5020893;28;20645;-36
2023/06/11 08:43:12;;;;;;;8.63;7.25;;;28.00;90.50;;;;;;5015565;28;20668;-36
2023/06/11 08:45:39;;;;;;;7.40;6.70;;;28.10;90.50;;;;;;5021870;28;20296;-36
2023/06/11 08:48:11;;;;;;;8.60;7.05;;;28.10;90.50;;;;;;5021399;28;20232;-35
2023/06/11 08:50:38;;;;;;;8.07;7.28;;;28.10;90.50;;;;;;5029619;28;20666;-35
2023/06/11 08:53:12;;;;;;;8.10;7.30;;;28.20;90.60;;;;;;5009749;28;20205;-35
2023/06/11 08:55:41;;;;;;;7.70;7.07;;;28.20;90.60;;;;;;5005944;28;20511;-36
2023/06/11 08:58:09;;;;;;;7.78;7.00;;;28.30;90.60;;;;;;5037876;28;20744;-36
2023/06/11 09:00:37;;;;;;;7.72;6.93;;;28.40;90.70;;;;;;5017451;28;20539;-36
2023/06/11 09:03:10;;;;;;;7.00;6.43;;;28.40;90.70;;;;;;5008612;28;20668;-36
2023/06/11 09:05:39;;;;;;;6.90;6.30;;;28.50;90.80;;;;;;4993336;28;20212;-36
2023/06/11 09:08:11;;;;;;;7.80;7.10;;;28.50;90.80;;;;;;5009524;28;20197;-36
2023/06/11 09:10:50;;;;;;;7.07;6.47;;;28.60;90.80;;;;;;5027673;28;20220;-36
2023/06/11 09:13:18;;;;;;;7.82;7.07;;;28.60;90.90;;;;;;5001201;28;20282;-36
2023/06/11 09:15:49;;;;;;;8.85;6.93;;;28.70;90.90;;;;;;5021327;28;20209;-36
2023/06/11 09:18:25;;;;;;;7.63;6.20;;;28.70;90.90;;;;;;5033420;28;20213;-37
2023/06/11 09:21:01;;;;;;;7.50;6.80;;;28.70;90.90;;;;;;5012705;28;20573;-36
2023/06/11 09:23:38;;;;;;;7.38;6.68;;;28.80;90.90;;;;;;4985603;28;20221;-36
2023/06/11 09:26:15;;;;;;;7.10;6.50;;;28.80;91.00;;;;;;5015812;28;20723;-34
2023/06/11 09:28:46;;;;;;;7.15;6.55;;;28.90;91.00;;;;;;5021163;28;20623;-36
2023/06/11 09:31:21;;;;;;;6.85;6.25;;;28.90;91.00;;;;;;5003968;28;20200;-36
2023/06/11 09:33:48;;;;;;;6.25;5.75;;;29.00;91.00;;;;;;5003157;28;20279;-34
2023/06/11 09:36:21;;;;;;;8.38;6.43;;;29.10;91.00;;;;;;5001847;28;20206;-37
2023/06/11 09:38:54;;;;;;;7.28;6.40;;;29.10;91.00;;;;;;5003428;28;20242;-36
2023/06/11 09:41:22;;;;;;;7.28;6.63;;;29.20;91.10;;;;;;5018674;28;20251;-36
2023/06/11 09:43:56;;;;;;;6.28;5.78;;;29.20;91.00;;;;;;5024979;28;20394;-35
2023/06/11 09:46:24;;;;;;;6.53;5.97;;;29.20;91.00;;;;;;5024926;28;20319;-36
2023/06/11 09:48:53;;;;;;;6.45;5.68;;;29.30;91.10;;;;;;5026278;28;20588;-35
2023/06/11 09:51:23;;;;;;;6.60;6.10;;;29.30;91.00;;;;;;5010848;28;20244;-35
2023/06/11 09:53:51;;;;;;;6.60;6.10;;;29.40;91.10;;;;;;5024118;28;20232;-35
2023/06/11 09:56:22;;;;;;;6.68;6.07;;;29.40;91.10;;;;;;5020050;28;20679;-35
2023/06/11 09:58:53;;;;;;;6.95;6.35;;;29.50;91.20;;;;;;5011908;28;20324;-34
2023/06/11 10:01:22;;;;;;;6.30;5.80;;;29.50;91.10;;;;;;5018646;28;20335;-34
2023/06/11 10:03:52;;;;;;;6.60;6.00;;;29.50;91.20;;;;;;5021388;28;20799;-35
2023/06/11 10:06:26;;;;;;;7.70;6.95;;;29.60;91.20;;;;;;5010231;28;20198;-35
2023/06/11 10:08:58;;;;;;;8.55;7.38;;;29.60;91.20;;;;;;5017145;28;20719;-35
2023/06/11 10:11:38;;;;;;;6.97;6.38;;;29.70;91.20;;;;;;5017409;28;20317;-37
2023/06/11 10:14:12;;;;;;;7.00;6.40;;;29.80;91.30;;;;;;5020366;28;20232;-35
2023/06/11 10:16:47;;;;;;;7.20;6.60;;;29.80;91.30;;;;;;5030642;28;20196;-36
2023/06/11 10:19:20;;;;;;;7.53;6.82;;;29.80;91.20;;;;;;5023591;28;20212;-35
2023/06/11 10:22:01;;;;;;;7.32;6.72;;;29.90;91.30;;;;;;5017312;28;20224;-36
2023/06/11 10:24:34;;;;;;;7.03;6.43;;;29.90;91.30;;;;;;5005333;28;20737;-36
2023/06/11 10:27:12;;;;;;;6.22;5.70;;;30.00;91.30;;;;;;5005028;28;20209;-36
2023/06/11 10:29:48;;;;;;;6.25;5.65;;;30.00;91.20;;;;;;5014375;28;20331;-36
2023/06/11 10:32:24;;;;;;;5.95;5.40;;;30.10;91.20;;;;;;5019657;28;20598;-35
2023/06/11 10:34:58;;;;;;;6.07;5.57;;;30.10;91.20;;;;;;5012240;28;20209;-35
2023/06/11 10:37:28;;;;;;;6.55;5.95;;;30.20;91.30;;;;;;5047389;28;20208;-34
2023/06/11 10:39:56;;;;;;;7.13;6.55;;;30.30;91.30;;;;;;5033137;28;20263;-34
2023/06/11 10:42:25;;;;;;;6.20;5.60;;;30.30;91.20;;;;;;5021938;28;20205;-35
2023/06/11 10:45:00;;;;;;;6.22;5.45;;;30.40;91.20;;;;;;5023729;28;20340;-36
2023/06/11 10:47:30;;;;;;;6.00;5.50;;;30.40;91.00;;;;;;5006266;28;20209;-39
2023/06/11 10:50:11;;;;;;;5.70;5.13;;;30.40;91.00;;;;;;5004454;28;20595;-39
2023/06/11 10:52:47;;;;;;;6.10;5.50;;;30.40;90.90;;;;;;5030409;28;20251;-41
2023/06/11 10:55:16;;;;;;;6.40;5.80;;;30.40;90.90;;;;;;5021172;28;20679;-40
2023/06/11 10:57:43;;;;;;;5.60;5.10;;;30.50;90.90;;;;;;5023816;28;20209;-39
2023/06/11 11:00:11;;;;;;;6.95;5.80;;;30.50;91.00;;;;;;5029510;28;20348;-39
2023/06/11 11:02:42;;;;;;;5.75;5.20;;;30.60;91.00;;;;;;5012669;28;20409;-39
2023/06/11 11:05:10;;;;;;;6.00;5.20;;;30.60;91.00;;;;;;5009985;28;20252;-40
2023/06/11 11:07:44;;;;;;;6.10;5.60;;;30.60;91.00;;;;;;5025266;28;20230;-39
2023/06/11 11:10:18;;;;;;;5.05;4.55;;;30.70;91.00;;;;;;5020769;28;20773;-40
2023/06/11 11:12:52;;;;;;;5.53;5.03;;;30.70;90.90;;;;;;5013511;28;20209;-39
2023/06/11 11:15:19;;;;;;;5.70;5.20;;;30.70;90.70;;;;;;5010397;28;20209;-40
2023/06/11 11:17:52;;;;;;;5.03;4.63;;;30.80;90.80;;;;;;5012522;28;20905;-39
2023/06/11 11:20:22;;;;;;;8.52;5.38;;;30.80;90.70;;;;;;5021199;28;20227;-39
2023/06/11 11:22:54;;;;;;;6.05;5.55;;;30.90;90.60;;;;;;5011110;28;20213;-40
2023/06/11 11:25:30;;;;;;;6.32;5.63;;;30.90;90.70;;;;;;5004905;28;20201;-40
2023/06/11 11:28:00;;;;;;;5.03;4.63;;;30.90;90.70;;;;;;5005217;28;20263;-40
2023/06/11 11:30:28;;;;;;;5.50;5.10;;;31.00;90.70;;;;;;5018893;28;20208;-40
2023/06/11 11:32:59;;;;;;;6.00;5.50;;;31.00;90.70;;;;;;5020373;28;20201;-40
2023/06/11 11:35:28;;;;;;;5.50;5.10;;;31.10;90.80;;;;;;5016409;28;20219;-40
2023/06/11 11:37:58;;;;;;;5.18;4.78;;;31.10;90.80;;;;;;5022780;28;20221;-41
2023/06/11 11:40:25;;;;;;;5.28;4.88;;;31.20;90.80;;;;;;5006615;28;20298;-40
2023/06/11 11:42:58;;;;;;;5.50;4.90;;;31.30;90.90;;;;;;5007048;28;20573;-40
2023/06/11 11:45:35;;;;;;;5.20;4.80;;;31.30;90.80;;;;;;5009621;28;20221;-40
2023/06/11 11:48:07;;;;;;;5.60;5.05;;;31.40;90.90;;;;;;5012743;28;20221;-36
2023/06/11 11:50:38;;;;;;;5.38;4.57;;;31.50;90.90;;;;;;5021083;28;21137;-36
2023/06/11 11:53:07;;;;;;;5.28;4.88;;;31.60;90.90;;;;;;5013939;28;20706;-36
2023/06/11 11:55:40;;;;;;;5.20;4.80;;;31.60;90.80;;;;;;5013114;28;20279;-36
2023/06/11 11:58:39;;;;;;;4.82;4.40;;;31.70;90.80;;;;;;5009479;28;20238;-35
2023/06/11 12:01:10;;;;;;;5.93;4.97;;;31.80;90.70;;;;;;5025969;28;20210;-35
2023/06/11 12:03:38;;;;;;;6.40;4.70;;;31.80;90.70;;;;;;5002146;28;20309;-37
2023/06/11 12:06:07;;;;;;;5.70;4.78;;;31.80;90.70;;;;;;5011325;28;20667;-36
2023/06/11 12:08:37;;;;;;;7.18;5.50;;;31.90;90.70;;;;;;5012170;28;20201;-35
2023/06/11 12:11:06;;;;;;;5.63;5.05;;;32.00;90.70;;;;;;5007130;28;20770;-35
2023/06/11 12:13:34;;;;;;;5.18;4.78;;;32.00;90.60;;;;;;5025094;28;20227;-36
2023/06/11 12:16:05;;;;;;;5.60;4.97;;;32.10;90.70;;;;;;5022514;28;20247;-34
2023/06/11 12:18:35;;;;;;;5.50;5.10;;;32.20;90.60;;;;;;5006196;28;20246;-35
2023/06/11 12:21:03;;;;;;;5.18;4.72;;;32.20;90.30;;;;;;5030651;28;20224;-36
2023/06/11 12:23:35;;;;;;;5.82;5.32;;;32.20;90.40;;;;;;5032004;28;20230;-36
2023/06/11 12:26:09;;;;;;;5.28;4.85;;;32.20;90.40;;;;;;5003338;28;20201;-36
2023/06/11 12:28:38;;;;;;;5.63;5.15;;;32.30;90.50;;;;;;5005496;28;20607;-36
2023/06/11 12:31:10;;;;;;;5.13;4.72;;;32.40;90.40;;;;;;5021266;28;20673;-36
2023/06/11 12:33:38;;;;;;;6.03;5.47;;;32.40;90.40;;;;;;5020067;28;20296;-37
2023/06/11 12:36:08;;;;;;;5.75;5.00;;;32.50;90.50;;;;;;5002626;28;20308;-37
2023/06/11 12:38:38;;;;;;;5.60;5.10;;;32.50;90.40;;;;;;5017957;28;20397;-37
2023/06/11 12:41:11;;;;;;;5.85;4.82;;;32.60;90.50;;;;;;5011100;28;20226;-36
2023/06/11 12:43:42;;;;;;;5.95;5.45;;;32.70;90.50;;;;;;5001351;28;20255;-37
2023/06/11 12:46:10;;;;;;;5.15;4.75;;;32.70;90.40;;;;;;5016897;28;20230;-36
2023/06/11 12:48:39;;;;;;;6.00;5.15;;;32.80;90.60;;;;;;5035515;28;20307;-40
2023/06/11 12:51:09;;;;;;;5.65;5.15;;;32.80;90.40;;;;;;5019770;28;20201;-40
2023/06/11 12:53:37;;;;;;;6.00;5.22;;;32.90;90.40;;;;;;5002532;28;20695;-43
2023/06/11 12:56:04;;;;;;;5.30;4.80;;;32.90;90.30;;;;;;5012484;28;20213;-37
2023/06/11 12:58:34;;;;;;;5.13;4.72;;;32.90;90.10;;;;;;5020796;28;20275;-36
2023/06/11 13:01:02;;;;;;;6.05;5.00;;;32.90;90.10;;;;;;5008214;28;20209;-39